Maxwell AFB, Alabama
Current Conditions -  °F | °C
As of 2:58 PM on Wednesday 26 Nov 2014 (Local Time) from KMXF Reporting Station
Clear Clear  
Wind Chill: 60°   Ceiling: Unl
Heat Index: 60°   Visibility: 10mi
Dew Point: 27°   Wind: 6mph
Humidity: 28%   Direction: 240°WSW
Pressure: 30.11"   Gusts: NA
Location:  32.3797°N, 86.3233°W
Report Text: KMXF 262058Z AUTO 24005KT 10SM CLR 15/M03 A3011 RMK AO2 SLP199 T01541029 57021
Loading
Personal Weather Stations






























Interactive Weather Map New forecast layout! Learn more

10-Day Weather Forecast

Advertisements
Track Severe Weather on mobile